Time;durP1;ratioP1;P1;durP2;ratioP2;P2;SDS_P1;SDS_P2;PMS_P1;PMS_P2;Temp;Humidity;BMP_temperature;BMP_pressure;BME280_temperature;BME280_humidity;BME280_pressure;Samples;Min_cycle;Max_cycle;Signal;HPM_P1;HPM_P2
2022/01/16 00:02:09;;;;;;;9.93;6.30;;;4.90;99.90;;;;;;5057467;28;20785;-66
2022/01/16 00:04:34;;;;;;;11.40;5.17;;;4.80;99.90;;;;;;5054156;28;20416;-67
2022/01/16 00:07:04;;;;;;;16.07;7.60;;;4.90;99.90;;;;;;5057370;28;20537;-67
2022/01/16 00:09:32;;;;;;;11.00;5.80;;;5.00;99.90;;;;;;5057920;28;20855;-67
2022/01/16 00:12:00;;;;;;;12.90;7.83;;;5.00;99.90;;;;;;5046875;28;20469;-67
2022/01/16 00:14:29;;;;;;;14.53;6.57;;;5.10;99.90;;;;;;5049058;28;20454;-67
2022/01/16 00:16:56;;;;;;;12.43;6.63;;;5.00;99.90;;;;;;5053346;28;20429;-67
2022/01/16 00:19:23;;;;;;;16.67;7.67;;;5.00;99.90;;;;;;5061590;28;20433;-67
2022/01/16 00:21:50;;;;;;;15.23;7.20;;;5.00;99.90;;;;;;5061865;28;20457;-67
2022/01/16 00:24:18;;;;;;;10.23;5.43;;;5.00;99.90;;;;;;5049437;28;20452;-66
2022/01/16 00:26:45;;;;;;;9.33;6.77;;;5.10;99.90;;;;;;5055677;28;20458;-67
2022/01/16 00:29:12;;;;;;;10.33;5.50;;;5.10;99.90;;;;;;5054163;28;20868;-67
2022/01/16 00:31:41;;;;;;;9.20;4.70;;;4.90;99.90;;;;;;5057617;28;20991;-67
2022/01/16 00:34:09;;;;;;;6.83;5.27;;;4.80;99.90;;;;;;5036960;28;20477;-65
2022/01/16 00:36:36;;;;;;;8.27;6.63;;;4.70;99.90;;;;;;5053713;28;23298;-66
2022/01/16 00:39:04;;;;;;;8.97;4.87;;;4.50;99.90;;;;;;5037942;28;20493;-66
2022/01/16 00:41:34;;;;;;;4.63;4.00;;;4.70;99.90;;;;;;5055061;28;20596;-66
2022/01/16 00:44:01;;;;;;;13.43;5.87;;;4.70;99.90;;;;;;5057628;28;20488;-66
2022/01/16 00:46:28;;;;;;;12.93;6.00;;;4.70;99.90;;;;;;5047896;28;20540;-66
2022/01/16 00:48:55;;;;;;;9.03;5.20;;;4.70;99.90;;;;;;5046979;28;20964;-66
2022/01/16 00:51:22;;;;;;;11.93;5.57;;;4.80;99.90;;;;;;5055678;28;20550;-66
2022/01/16 00:53:49;;;;;;;9.67;5.17;;;4.70;99.90;;;;;;5055132;28;20487;-66
2022/01/16 00:56:16;;;;;;;12.20;6.10;;;4.80;99.90;;;;;;5055196;28;20497;-66
2022/01/16 00:58:45;;;;;;;10.80;5.20;;;4.80;99.90;;;;;;5041246;28;22324;-66
2022/01/16 01:01:12;;;;;;;6.50;4.50;;;4.70;99.90;;;;;;5050995;28;20438;-66
2022/01/16 01:03:39;;;;;;;9.10;4.90;;;4.60;99.90;;;;;;5054535;28;20459;-67
2022/01/16 01:06:07;;;;;;;16.17;7.10;;;4.50;99.90;;;;;;5042601;28;20424;-67
2022/01/16 01:08:35;;;;;;;11.43;5.80;;;4.70;99.90;;;;;;5063035;28;20544;-66
2022/01/16 01:11:06;;;;;;;13.60;8.23;;;4.70;99.90;;;;;;5056142;28;21310;-66
2022/01/16 01:13:44;;;;;;;11.27;5.40;;;4.60;99.90;;;;;;5050316;28;20486;-66
2022/01/16 01:16:16;;;;;;;15.83;6.47;;;4.60;99.90;;;;;;5048864;28;20469;-66
2022/01/16 01:18:44;;;;;;;20.77;7.33;;;4.50;99.90;;;;;;5057702;28;20460;-66
2022/01/16 01:21:24;;;;;;;17.97;4.80;;;4.50;99.90;;;;;;5053945;28;20873;-66
2022/01/16 01:23:51;;;;;;;13.10;6.10;;;4.60;99.90;;;;;;5051925;28;20573;-66
2022/01/16 01:26:20;;;;;;;14.07;4.77;;;4.30;99.90;;;;;;5051527;28;20444;-66
2022/01/16 01:28:47;;;;;;;9.50;6.17;;;4.10;99.90;;;;;;5054639;28;20596;-66
2022/01/16 01:31:15;;;;;;;12.63;6.57;;;4.20;99.90;;;;;;5057898;28;20611;-66
2022/01/16 01:33:42;;;;;;;6.63;4.77;;;4.20;99.90;;;;;;5049545;28;20465;-66
2022/01/16 01:36:09;;;;;;;10.30;6.40;;;4.10;99.90;;;;;;5066063;28;21253;-66
2022/01/16 01:38:36;;;;;;;16.60;9.00;;;4.20;99.90;;;;;;5050005;28;20429;-66
2022/01/16 01:41:03;;;;;;;7.70;3.73;;;4.10;99.90;;;;;;5060631;28;20517;-66
2022/01/16 01:51:46;;;;;;;9.73;6.17;;;4.00;99.90;;;;;;5051132;28;21754;-66
2022/01/16 01:54:14;;;;;;;7.97;4.10;;;3.90;99.90;;;;;;5062186;28;20459;-67
2022/01/16 01:56:42;;;;;;;12.83;7.40;;;3.70;99.90;;;;;;5055026;28;20476;-66
2022/01/16 01:59:10;;;;;;;15.40;8.80;;;3.80;99.90;;;;;;5065606;28;20580;-66
2022/01/16 02:01:38;;;;;;;12.30;5.37;;;3.70;99.90;;;;;;5043184;28;21067;-66
2022/01/16 02:04:06;;;;;;;8.73;5.17;;;3.80;99.90;;;;;;5051434;28;20687;-66
2022/01/16 02:06:34;;;;;;;8.43;4.37;;;3.80;99.90;;;;;;5048727;28;20599;-67
2022/01/16 02:09:03;;;;;;;18.67;6.00;;;3.80;99.90;;;;;;5047708;28;20459;-66
2022/01/16 02:11:32;;;;;;;11.13;6.33;;;3.90;99.90;;;;;;5050679;28;20491;-66
2022/01/16 02:14:07;;;;;;;7.57;4.70;;;3.80;99.90;;;;;;5057932;28;20460;-66
2022/01/16 02:28:03;;;;;;;7.27;3.67;;;3.90;99.90;;;;;;5063818;28;20475;-66
2022/01/16 02:34:30;;;;;;;6.03;4.47;;;4.00;99.90;;;;;;5055444;28;20524;-66
2022/01/16 02:36:22;;;;;;;4.40;4.00;;;4.00;99.90;;;;;;5048858;28;20445;-66
2022/01/16 02:38:50;;;;;;;8.00;5.43;;;3.90;99.90;;;;;;5055493;28;20812;-67
2022/01/16 02:41:17;;;;;;;13.27;7.27;;;3.80;99.90;;;;;;5055001;28;20493;-66
2022/01/16 02:43:49;;;;;;;14.40;7.00;;;3.70;99.90;;;;;;5052164;28;21190;-67
2022/01/16 02:49:00;;;;;;;7.77;4.07;;;3.70;99.90;;;;;;5053213;28;20473;-67
2022/01/16 02:51:28;;;;;;;7.93;5.57;;;3.80;99.90;;;;;;5057654;28;20524;-67
2022/01/16 02:53:57;;;;;;;4.90;4.60;;;3.80;99.90;;;;;;5053224;28;20542;-66
2022/01/16 02:56:24;;;;;;;5.40;5.00;;;3.80;99.90;;;;;;5050497;28;20450;-66
2022/01/16 02:58:52;;;;;;;7.93;6.57;;;3.80;99.90;;;;;;5055398;28;20990;-66
2022/01/16 03:01:19;;;;;;;9.10;5.83;;;3.70;99.90;;;;;;5058145;28;20468;-66
2022/01/16 03:03:47;;;;;;;10.83;5.80;;;3.80;99.90;;;;;;5052345;28;20493;-67
2022/01/16 03:06:14;;;;;;;8.20;5.00;;;3.80;99.90;;;;;;5052946;28;20453;-66
2022/01/16 03:08:41;;;;;;;6.57;5.07;;;3.80;99.90;;;;;;5048236;28;20661;-67
2022/01/16 03:13:51;;;;;;;5.73;4.27;;;3.70;99.90;;;;;;5046827;28;20452;-66
2022/01/16 03:16:19;;;;;;;12.10;7.70;;;3.70;99.90;;;;;;5051236;28;20829;-67
2022/01/16 03:24:15;;;;;;;12.87;6.50;;;4.10;99.90;;;;;;5055166;28;20551;-66
2022/01/16 03:26:43;;;;;;;12.27;7.90;;;4.00;99.90;;;;;;5055026;28;20952;-66
2022/01/16 03:29:11;;;;;;;10.10;5.60;;;4.10;99.90;;;;;;5057902;28;20472;-66
2022/01/16 03:31:38;;;;;;;10.90;6.27;;;4.20;99.90;;;;;;5051646;28;20958;-66
2022/01/16 03:34:05;;;;;;;20.03;4.93;;;4.10;99.90;;;;;;5048382;28;20642;-66
2022/01/16 03:36:32;;;;;;;11.10;7.03;;;4.10;99.90;;;;;;5056515;28;20588;-66
2022/01/16 03:39:00;;;;;;;9.50;5.23;;;4.10;99.90;;;;;;5050997;28;20463;-67
2022/01/16 03:41:28;;;;;;;14.60;6.20;;;4.30;99.90;;;;;;5034382;28;20811;-66
2022/01/16 03:44:01;;;;;;;8.73;6.07;;;4.40;99.90;;;;;;5038509;28;20511;-67
2022/01/16 03:46:34;;;;;;;23.17;7.87;;;4.40;99.90;;;;;;5056826;28;21106;-66
2022/01/16 03:49:05;;;;;;;10.83;7.30;;;4.40;99.90;;;;;;5057795;28;20532;-67
2022/01/16 03:51:32;;;;;;;14.47;6.60;;;4.50;99.90;;;;;;5055210;28;20574;-67
2022/01/16 03:53:59;;;;;;;17.50;8.10;;;4.30;99.90;;;;;;5038867;28;20569;-68
2022/01/16 03:56:26;;;;;;;9.20;6.30;;;4.20;99.90;;;;;;5054367;28;20543;-67
2022/01/16 03:58:53;;;;;;;19.77;7.50;;;4.10;99.90;;;;;;5047684;28;20543;-69
2022/01/16 04:01:24;;;;;;;16.13;6.10;;;4.10;99.90;;;;;;5030272;28;20523;-69
2022/01/16 04:03:52;;;;;;;13.43;6.73;;;4.10;99.90;;;;;;5047827;28;20449;-69
2022/01/16 04:06:19;;;;;;;18.10;7.23;;;4.20;99.90;;;;;;5013263;28;20468;-69
2022/01/16 04:08:46;;;;;;;23.17;9.13;;;4.10;99.90;;;;;;5033799;28;20985;-66
2022/01/16 04:11:13;;;;;;;12.53;6.80;;;4.20;99.90;;;;;;5059081;28;21005;-67
2022/01/16 04:13:48;;;;;;;11.50;6.30;;;4.20;99.90;;;;;;5049438;28;20521;-67
2022/01/16 04:16:15;;;;;;;9.50;6.13;;;4.10;99.90;;;;;;5049457;28;20449;-67
2022/01/16 04:18:44;;;;;;;9.07;6.60;;;4.20;99.90;;;;;;5049631;28;20467;-66
2022/01/16 04:21:11;;;;;;;9.00;7.70;;;4.00;99.90;;;;;;5057627;28;20482;-66
2022/01/16 04:23:38;;;;;;;11.70;7.73;;;3.90;99.90;;;;;;5047431;28;20532;-66
2022/01/16 04:26:05;;;;;;;15.90;6.40;;;4.00;99.90;;;;;;5063426;28;20949;-68
2022/01/16 04:28:32;;;;;;;12.17;6.93;;;3.90;99.90;;;;;;5059311;28;21653;-67
2022/01/16 04:31:01;;;;;;;17.70;8.77;;;4.00;99.90;;;;;;5062677;28;20429;-67
2022/01/16 04:33:28;;;;;;;8.80;7.30;;;4.10;99.90;;;;;;5050661;28;20486;-67
2022/01/16 04:35:57;;;;;;;10.73;6.80;;;4.10;99.90;;;;;;5045946;28;20448;-67
2022/01/16 04:38:24;;;;;;;16.63;10.27;;;4.10;99.90;;;;;;5056118;28;20490;-67
2022/01/16 04:43:52;;;;;;;9.20;6.57;;;3.90;99.90;;;;;;5052089;28;20881;-67
2022/01/16 04:46:20;;;;;;;31.47;8.83;;;3.90;99.90;;;;;;5050924;28;20424;-67
2022/01/16 04:48:47;;;;;;;16.23;9.00;;;3.90;99.90;;;;;;5054255;28;20447;-67
2022/01/16 04:51:16;;;;;;;11.13;7.10;;;4.00;99.90;;;;;;5054978;28;21016;-67
2022/01/16 04:53:44;;;;;;;21.07;10.90;;;3.90;99.90;;;;;;5047321;28;20546;-67
2022/01/16 04:56:11;;;;;;;14.00;7.50;;;4.00;99.90;;;;;;5045601;28;27913;-67
2022/01/16 04:58:39;;;;;;;16.17;7.57;;;4.00;99.90;;;;;;5059113;28;20437;-67
2022/01/16 05:01:06;;;;;;;11.40;7.90;;;3.90;99.90;;;;;;5057603;28;20912;-67
2022/01/16 05:03:34;;;;;;;14.27;8.70;;;4.00;99.90;;;;;;5061181;28;20531;-67
2022/01/16 05:06:02;;;;;;;13.90;7.60;;;4.00;99.90;;;;;;5053690;28;20489;-67
2022/01/16 05:08:30;;;;;;;12.10;3.97;;;3.90;99.90;;;;;;5058816;28;21040;-67
2022/01/16 05:10:58;;;;;;;28.87;11.63;;;4.00;99.90;;;;;;5044980;28;20440;-67
2022/01/16 05:13:31;;;;;;;17.00;9.93;;;4.00;99.90;;;;;;5045552;28;20449;-67
2022/01/16 05:18:44;;;;;;;18.50;8.67;;;4.10;99.90;;;;;;5063934;28;20512;-67
2022/01/16 05:21:11;;;;;;;18.47;10.60;;;4.10;99.90;;;;;;5052798;28;20443;-67
2022/01/16 05:23:41;;;;;;;24.20;11.03;;;4.10;99.90;;;;;;5048707;28;21155;-67
2022/01/16 05:26:08;;;;;;;17.17;10.20;;;4.20;99.90;;;;;;5062710;28;20417;-68
2022/01/16 05:28:35;;;;;;;26.57;11.73;;;4.20;99.90;;;;;;5057950;28;20491;-65
2022/01/16 05:31:02;;;;;;;17.10;9.67;;;4.20;99.90;;;;;;5058169;28;20542;-67
2022/01/16 05:33:29;;;;;;;25.40;10.60;;;4.20;99.90;;;;;;5057230;28;20582;-67
2022/01/16 05:35:56;;;;;;;23.50;10.20;;;4.30;99.90;;;;;;5060653;28;20527;-68
2022/01/16 05:38:23;;;;;;;24.47;11.27;;;4.40;99.90;;;;;;5055199;28;20553;-67
2022/01/16 05:40:52;;;;;;;18.67;10.90;;;4.30;99.90;;;;;;5061096;28;20488;-67
2022/01/16 05:43:19;;;;;;;16.30;11.40;;;4.40;99.90;;;;;;5056895;28;20478;-67
2022/01/16 05:45:46;;;;;;;12.87;8.93;;;4.30;99.90;;;;;;5056088;28;20465;-67
2022/01/16 05:48:13;;;;;;;22.70;10.00;;;4.30;99.90;;;;;;5054596;28;20454;-67
2022/01/16 05:50:40;;;;;;;21.20;10.13;;;4.10;99.90;;;;;;5058158;28;20471;-68
2022/01/16 05:53:07;;;;;;;21.33;11.10;;;4.10;99.90;;;;;;5044422;28;20564;-67
2022/01/16 05:55:36;;;;;;;24.83;10.53;;;4.20;99.90;;;;;;5046694;28;20976;-67
2022/01/16 05:58:05;;;;;;;8.10;6.00;;;4.30;99.90;;;;;;5059939;28;20521;-67
2022/01/16 06:00:32;;;;;;;26.50;10.87;;;4.30;99.90;;;;;;5055056;28;20520;-67
2022/01/16 06:02:59;;;;;;;27.67;9.70;;;4.20;99.90;;;;;;5040353;28;20508;-67
2022/01/16 06:05:26;;;;;;;26.60;9.80;;;4.10;99.90;;;;;;5044299;28;21064;-67
2022/01/16 06:07:57;;;;;;;22.97;10.87;;;4.20;99.90;;;;;;5062262;28;20681;-67
2022/01/16 06:10:24;;;;;;;21.07;12.20;;;4.20;99.90;;;;;;5065714;28;20455;-67
2022/01/16 06:12:52;;;;;;;23.03;9.30;;;4.20;99.90;;;;;;5054895;28;21068;-67
2022/01/16 06:15:21;;;;;;;28.67;11.10;;;4.30;99.90;;;;;;5059210;28;20463;-67
2022/01/16 06:17:48;;;;;;;13.93;7.73;;;4.20;99.90;;;;;;5062518;28;20481;-67
2022/01/16 06:20:16;;;;;;;27.13;13.57;;;4.20;99.90;;;;;;5068081;28;20433;-67
2022/01/16 06:22:43;;;;;;;22.10;10.17;;;4.20;99.90;;;;;;5061184;28;20449;-67
2022/01/16 06:25:11;;;;;;;23.70;11.13;;;4.20;99.90;;;;;;5051436;28;20962;-67
2022/01/16 06:27:38;;;;;;;19.20;11.07;;;4.20;99.90;;;;;;5057920;28;20440;-67
2022/01/16 06:30:07;;;;;;;11.40;9.00;;;4.10;99.90;;;;;;5062005;28;20433;-67
2022/01/16 06:32:36;;;;;;;22.07;11.47;;;4.10;99.90;;;;;;5065249;28;20490;-67
2022/01/16 06:35:03;;;;;;;6.50;4.17;;;4.20;99.90;;;;;;5058491;28;20460;-67
2022/01/16 06:37:30;;;;;;;14.53;6.80;;;4.20;99.90;;;;;;5059248;28;21040;-67
2022/01/16 06:39:57;;;;;;;45.70;17.77;;;4.10;99.90;;;;;;5064180;28;20491;-66
2022/01/16 06:42:24;;;;;;;22.23;9.63;;;4.10;99.90;;;;;;5052657;28;20483;-67
2022/01/16 06:44:51;;;;;;;20.43;10.60;;;4.10;99.90;;;;;;5064986;28;21157;-68
2022/01/16 06:47:18;;;;;;;26.70;11.17;;;4.10;99.90;;;;;;5070535;28;20461;-68
2022/01/16 06:49:47;;;;;;;17.23;10.70;;;4.20;99.90;;;;;;5055204;28;20441;-68
2022/01/16 06:52:14;;;;;;;33.83;14.97;;;4.20;99.90;;;;;;5067319;28;20540;-67
2022/01/16 06:54:41;;;;;;;33.30;14.67;;;4.20;99.90;;;;;;5063305;28;21258;-67
2022/01/16 06:57:09;;;;;;;15.93;6.80;;;4.20;99.90;;;;;;5059463;28;20460;-68
2022/01/16 06:59:38;;;;;;;19.10;11.43;;;4.20;99.90;;;;;;5057818;28;20458;-65
2022/01/16 07:02:06;;;;;;;8.07;7.27;;;4.20;99.90;;;;;;5057129;28;20505;-66
2022/01/16 07:04:33;;;;;;;32.77;10.07;;;4.20;99.90;;;;;;5061104;28;20458;-66
2022/01/16 07:07:02;;;;;;;27.73;12.00;;;4.20;99.90;;;;;;5052213;28;20430;-66
2022/01/16 07:09:29;;;;;;;16.63;11.80;;;4.20;99.90;;;;;;5034981;28;21892;-67
2022/01/16 07:11:56;;;;;;;24.17;12.80;;;4.20;99.90;;;;;;5042609;28;20433;-66
2022/01/16 07:14:23;;;;;;;19.53;11.37;;;4.20;99.90;;;;;;5057202;28;20474;-67
2022/01/16 07:16:50;;;;;;;25.20;13.33;;;4.30;99.90;;;;;;5064101;28;20474;-67
2022/01/16 07:19:17;;;;;;;19.57;14.00;;;4.30;99.90;;;;;;5055862;28;20525;-66
2022/01/16 07:21:45;;;;;;;12.90;9.50;;;4.20;99.90;;;;;;5064097;28;20468;-66
2022/01/16 07:24:15;;;;;;;37.00;18.97;;;4.20;99.90;;;;;;5068236;28;20570;-67
2022/01/16 07:26:43;;;;;;;23.03;10.43;;;4.30;99.90;;;;;;5066283;28;20570;-66
2022/01/16 07:29:10;;;;;;;46.40;14.23;;;4.20;99.90;;;;;;5064041;28;20832;-66
2022/01/16 07:31:38;;;;;;;14.43;8.27;;;4.30;99.90;;;;;;5067190;28;20552;-66
2022/01/16 07:34:06;;;;;;;7.50;4.67;;;4.30;99.90;;;;;;5062351;28;20631;-66
2022/01/16 07:36:33;;;;;;;31.00;13.93;;;4.20;99.90;;;;;;5060185;28;20589;-66
2022/01/16 07:39:00;;;;;;;23.50;12.40;;;4.30;99.90;;;;;;5052206;28;21380;-67
2022/01/16 07:41:28;;;;;;;21.90;10.40;;;4.30;99.90;;;;;;5060778;28;20464;-67
2022/01/16 07:43:56;;;;;;;21.10;13.43;;;4.40;99.90;;;;;;5059161;28;20477;-66
2022/01/16 07:46:23;;;;;;;12.87;7.13;;;4.40;99.90;;;;;;5066070;28;20429;-66
2022/01/16 07:48:50;;;;;;;20.30;9.37;;;4.50;99.90;;;;;;5061571;28;20429;-66
2022/01/16 07:51:17;;;;;;;23.43;11.83;;;4.40;99.90;;;;;;5064455;28;20470;-67
2022/01/16 07:53:44;;;;;;;20.33;13.20;;;4.40;99.90;;;;;;5062278;28;20482;-66
2022/01/16 07:56:11;;;;;;;28.83;12.10;;;4.30;99.90;;;;;;5057363;28;20519;-67
2022/01/16 07:58:41;;;;;;;19.17;9.83;;;4.40;99.90;;;;;;5048290;28;20590;-66
2022/01/16 08:01:09;;;;;;;14.60;8.67;;;4.40;99.90;;;;;;5060909;28;20432;-66
2022/01/16 08:03:36;;;;;;;31.17;15.20;;;4.50;99.90;;;;;;5049516;28;21036;-66
2022/01/16 08:06:03;;;;;;;18.93;10.50;;;4.40;99.90;;;;;;5052859;28;20461;-66
2022/01/16 08:08:31;;;;;;;36.17;12.67;;;4.60;99.90;;;;;;5044012;28;20462;-67
2022/01/16 08:10:58;;;;;;;23.20;8.40;;;4.60;99.90;;;;;;5056054;28;20546;-67
2022/01/16 08:13:25;;;;;;;22.30;10.13;;;4.70;99.90;;;;;;5047839;28;20547;-67
2022/01/16 08:15:53;;;;;;;34.07;13.23;;;4.60;99.90;;;;;;5019778;28;20539;-68
2022/01/16 08:18:20;;;;;;;35.10;12.70;;;4.60;99.90;;;;;;5028821;28;20487;-67
2022/01/16 08:20:47;;;;;;;30.17;15.90;;;4.60;99.90;;;;;;5035882;28;20941;-67
2022/01/16 08:23:14;;;;;;;22.53;14.60;;;4.60;99.90;;;;;;5053218;28;20465;-67
2022/01/16 08:25:42;;;;;;;25.40;11.70;;;4.70;99.90;;;;;;5041977;28;20462;-66
2022/01/16 08:28:09;;;;;;;8.13;6.90;;;4.70;99.90;;;;;;5060268;28;20424;-66
2022/01/16 08:30:36;;;;;;;20.30;13.17;;;4.60;99.90;;;;;;5050616;28;20900;-66
2022/01/16 08:33:04;;;;;;;31.17;10.30;;;4.70;99.90;;;;;;5050324;28;20533;-66
2022/01/16 08:35:31;;;;;;;17.60;10.97;;;4.80;99.90;;;;;;5048945;28;20523;-66
2022/01/16 08:37:58;;;;;;;23.00;11.00;;;4.60;99.90;;;;;;5054321;28;20489;-66
2022/01/16 08:40:25;;;;;;;17.13;10.83;;;4.50;99.90;;;;;;5046019;28;21652;-66
2022/01/16 08:42:52;;;;;;;20.83;11.60;;;4.50;99.90;;;;;;5053755;28;20897;-66
2022/01/16 08:45:19;;;;;;;31.63;11.60;;;4.60;99.90;;;;;;5057157;28;20536;-67
2022/01/16 08:47:47;;;;;;;39.53;13.80;;;4.70;99.90;;;;;;5062080;28;21091;-67
2022/01/16 08:50:16;;;;;;;16.80;9.20;;;4.80;99.90;;;;;;5058508;28;20421;-66
2022/01/16 08:52:43;;;;;;;12.67;8.23;;;5.00;99.90;;;;;;5055862;28;20452;-66
2022/01/16 08:55:11;;;;;;;33.23;11.70;;;4.90;99.90;;;;;;5054899;28;20476;-67
2022/01/16 08:57:39;;;;;;;25.57;14.27;;;4.90;99.90;;;;;;5047953;28;20510;-67
2022/01/16 09:00:08;;;;;;;26.83;14.17;;;5.00;99.90;;;;;;5051394;28;20522;-66
2022/01/16 09:02:35;;;;;;;23.43;10.77;;;5.00;99.90;;;;;;5056150;28;20690;-67
2022/01/16 09:05:03;;;;;;;24.03;12.57;;;4.90;99.90;;;;;;5054726;28;20583;-67
2022/01/16 09:07:31;;;;;;;23.70;11.43;;;4.90;99.90;;;;;;5047514;28;20491;-67
2022/01/16 09:10:00;;;;;;;33.67;11.43;;;4.90;99.90;;;;;;5052239;28;20560;-66
2022/01/16 09:12:27;;;;;;;30.57;13.60;;;4.90;99.90;;;;;;5051619;28;20453;-66
2022/01/16 09:14:54;;;;;;;10.80;5.80;;;4.90;99.90;;;;;;5048500;28;20433;-69
2022/01/16 09:17:21;;;;;;;26.17;14.87;;;4.90;99.90;;;;;;5058884;28;21033;-66
2022/01/16 09:19:48;;;;;;;19.03;9.30;;;4.90;99.90;;;;;;5062027;28;20528;-66
2022/01/16 09:22:16;;;;;;;12.17;10.93;;;5.10;99.90;;;;;;5050168;28;20565;-66
2022/01/16 09:24:44;;;;;;;18.33;9.93;;;5.10;99.90;;;;;;5038791;28;20468;-66
2022/01/16 09:27:11;;;;;;;15.33;9.40;;;5.00;99.90;;;;;;5058590;28;20466;-67
2022/01/16 09:29:38;;;;;;;29.60;12.70;;;5.00;99.90;;;;;;5053523;28;20513;-67
2022/01/16 09:32:06;;;;;;;18.80;14.40;;;5.10;99.90;;;;;;5054010;28;20520;-66
2022/01/16 09:34:34;;;;;;;19.70;10.13;;;5.10;99.90;;;;;;5054261;28;20433;-66
2022/01/16 09:37:04;;;;;;;33.30;12.90;;;5.10;99.90;;;;;;5050575;28;20454;-67
2022/01/16 09:39:31;;;;;;;24.60;13.40;;;5.20;99.90;;;;;;5059051;28;20489;-66
2022/01/16 09:42:01;;;;;;;28.07;14.10;;;5.30;99.90;;;;;;5057187;28;20484;-67
2022/01/16 09:44:29;;;;;;;21.73;7.70;;;5.30;99.90;;;;;;5048877;28;21013;-66
2022/01/16 09:46:57;;;;;;;15.47;9.30;;;5.30;99.90;;;;;;5045066;28;20469;-66
2022/01/16 09:49:24;;;;;;;27.47;14.30;;;5.30;99.90;;;;;;5051986;28;21467;-67
2022/01/16 09:51:53;;;;;;;19.53;12.63;;;5.30;99.90;;;;;;5045841;28;20494;-66
2022/01/16 09:54:21;;;;;;;24.50;11.17;;;5.40;99.90;;;;;;5039600;28;20864;-66
2022/01/16 09:56:49;;;;;;;15.63;10.10;;;5.40;99.90;;;;;;5052713;28;20458;-66
2022/01/16 09:59:18;;;;;;;21.67;12.97;;;5.50;99.90;;;;;;5053423;28;20599;-67
2022/01/16 10:01:49;;;;;;;20.03;10.70;;;5.50;99.90;;;;;;5058064;28;20429;-67
2022/01/16 10:04:32;;;;;;;25.37;13.47;;;5.50;99.90;;;;;;5054833;28;20485;-67
2022/01/16 10:07:01;;;;;;;25.40;14.47;;;5.50;99.90;;;;;;5050312;28;20512;-67
2022/01/16 10:09:29;;;;;;;24.93;12.17;;;5.60;99.90;;;;;;5055925;28;20433;-66
2022/01/16 10:11:57;;;;;;;16.30;9.63;;;5.70;99.90;;;;;;5050644;28;20440;-66
2022/01/16 10:14:35;;;;;;;12.73;9.07;;;5.60;99.90;;;;;;5043591;28;21172;-66
2022/01/16 10:17:11;;;;;;;18.30;13.20;;;5.70;99.90;;;;;;5054198;28;20437;-67
2022/01/16 10:19:39;;;;;;;18.63;8.53;;;5.70;99.90;;;;;;5050473;28;20443;-67
2022/01/16 10:22:08;;;;;;;18.03;11.40;;;5.70;99.90;;;;;;5050687;28;20449;-67
2022/01/16 10:24:35;;;;;;;25.07;10.03;;;5.60;99.90;;;;;;5050519;28;20448;-67
2022/01/16 10:27:18;;;;;;;23.77;11.90;;;5.70;99.90;;;;;;5049955;28;20597;-67
2022/01/16 10:29:49;;;;;;;25.90;11.20;;;5.70;99.90;;;;;;5057882;28;20429;-67
2022/01/16 10:32:18;;;;;;;22.43;10.47;;;5.80;99.90;;;;;;5056549;28;20530;-67
2022/01/16 10:34:47;;;;;;;12.70;9.20;;;6.00;99.90;;;;;;5054162;28;20843;-67
2022/01/16 10:37:20;;;;;;;8.77;6.27;;;6.00;99.90;;;;;;5063218;28;20962;-67
2022/01/16 10:40:00;;;;;;;17.37;9.97;;;6.10;99.90;;;;;;5049977;28;20840;-68
2022/01/16 10:42:29;;;;;;;32.40;12.23;;;6.10;99.90;;;;;;5045378;28;21353;-67
2022/01/16 10:45:00;;;;;;;22.80;13.73;;;6.20;99.90;;;;;;5058214;28;20453;-67
2022/01/16 10:47:36;;;;;;;16.77;8.43;;;6.30;99.90;;;;;;5059506;28;20981;-67
2022/01/16 10:50:16;;;;;;;18.63;8.40;;;6.30;99.90;;;;;;5041162;28;20433;-66
2022/01/16 10:52:55;;;;;;;15.50;8.47;;;6.20;99.90;;;;;;5044268;28;20622;-67
2022/01/16 10:55:24;;;;;;;25.50;9.70;;;6.20;99.90;;;;;;5041636;28;20462;-68
2022/01/16 10:57:51;;;;;;;24.93;11.40;;;6.30;99.90;;;;;;5045834;28;20574;-67
2022/01/16 11:00:22;;;;;;;6.37;3.90;;;6.30;99.90;;;;;;5042136;28;20948;-67
2022/01/16 11:02:51;;;;;;;8.73;7.30;;;6.30;99.90;;;;;;5048543;28;20543;-68
2022/01/16 11:05:21;;;;;;;21.20;11.43;;;6.30;99.90;;;;;;5039602;28;20436;-68
2022/01/16 11:07:57;;;;;;;27.40;11.60;;;6.40;99.90;;;;;;5050452;28;20493;-67
2022/01/16 11:10:27;;;;;;;8.90;7.50;;;6.30;99.90;;;;;;5052516;28;20458;-68
2022/01/16 11:12:57;;;;;;;16.80;9.60;;;6.30;99.90;;;;;;5054247;28;20540;-67
2022/01/16 11:15:26;;;;;;;19.73;9.57;;;6.20;99.90;;;;;;5046423;28;20459;-67
2022/01/16 11:17:53;;;;;;;21.50;12.60;;;6.20;99.90;;;;;;5045076;28;20468;-68
2022/01/16 11:20:27;;;;;;;22.30;10.50;;;6.30;99.90;;;;;;5042689;28;20630;-68
2022/01/16 11:25:45;;;;;;;15.10;10.10;;;6.40;99.90;;;;;;5027841;28;20456;-67
2022/01/16 11:28:15;;;;;;;21.37;8.87;;;6.50;99.90;;;;;;5042809;28;21220;-66
2022/01/16 11:30:47;;;;;;;23.47;11.83;;;6.50;99.90;;;;;;5047075;28;20936;-67
2022/01/16 11:33:15;;;;;;;8.80;7.90;;;6.40;99.90;;;;;;5047856;28;20475;-67
2022/01/16 11:35:50;;;;;;;18.57;8.10;;;6.40;99.90;;;;;;5055998;28;20499;-67
2022/01/16 11:38:19;;;;;;;27.50;14.73;;;6.30;99.90;;;;;;5045568;28;21103;-68
2022/01/16 11:40:47;;;;;;;17.20;10.87;;;6.30;99.90;;;;;;5050164;28;20461;-68
2022/01/16 11:43:36;;;;;;;25.73;11.67;;;6.20;99.90;;;;;;5042042;28;20457;-68
2022/01/16 11:46:12;;;;;;;28.27;10.97;;;6.20;99.90;;;;;;5045341;28;20453;-67
2022/01/16 11:48:50;;;;;;;12.97;8.10;;;6.30;99.90;;;;;;5038919;28;20502;-67
2022/01/16 11:51:59;;;;;;;15.53;8.13;;;6.40;99.90;;;;;;5054262;28;20444;-68
2022/01/16 11:54:31;;;;;;;16.70;7.30;;;6.30;99.90;;;;;;5032522;28;20842;-68
2022/01/16 11:57:01;;;;;;;14.97;8.07;;;6.40;99.90;;;;;;5049870;28;20528;-68
2022/01/16 11:59:36;;;;;;;22.33;10.23;;;6.50;99.90;;;;;;5055607;28;20474;-68
2022/01/16 12:02:17;;;;;;;14.90;9.97;;;6.50;99.90;;;;;;5054597;28;20432;-68
2022/01/16 12:04:55;;;;;;;30.43;11.00;;;6.50;99.90;;;;;;5041443;28;20435;-68
2022/01/16 12:07:49;;;;;;;16.97;9.80;;;6.60;99.90;;;;;;5046634;28;21143;-68
2022/01/16 12:10:57;;;;;;;26.03;10.77;;;6.40;99.90;;;;;;5048345;28;21738;-67
2022/01/16 12:13:54;;;;;;;21.80;9.27;;;6.60;99.90;;;;;;4959990;28;20485;-67
2022/01/16 12:16:44;;;;;;;13.87;8.60;;;6.60;99.90;;;;;;4965799;28;20945;-68
2022/01/16 12:19:47;;;;;;;16.40;8.23;;;6.50;99.90;;;;;;5045797;28;21337;-68
2022/01/16 12:22:40;;;;;;;18.37;10.00;;;6.60;99.90;;;;;;5048203;28;21070;-68
2022/01/16 12:25:08;;;;;;;17.83;9.47;;;6.50;99.90;;;;;;5046447;28;20427;-67
2022/01/16 12:27:45;;;;;;;11.00;7.90;;;6.60;99.90;;;;;;5043134;28;20985;-67
2022/01/16 12:30:16;;;;;;;11.13;5.13;;;6.40;99.90;;;;;;5057959;28;20441;-67
2022/01/16 12:32:53;;;;;;;22.03;8.80;;;6.40;99.90;;;;;;5054907;28;21107;-69
2022/01/16 12:36:12;;;;;;;13.77;9.00;;;6.40;99.90;;;;;;5036506;28;20440;-68
2022/01/16 12:38:46;;;;;;;25.40;11.77;;;6.30;99.90;;;;;;4962197;28;21229;-67
2022/01/16 12:41:16;;;;;;;15.50;11.07;;;6.30;99.90;;;;;;5025582;28;20558;-68
2022/01/16 12:43:51;;;;;;;17.50;8.87;;;6.50;99.90;;;;;;5039520;28;20449;-69
2022/01/16 12:46:22;;;;;;;17.50;10.80;;;6.50;99.90;;;;;;5049265;28;20444;-69
2022/01/16 12:48:51;;;;;;;15.30;7.40;;;6.30;99.90;;;;;;5060117;28;21092;-67
2022/01/16 12:51:20;;;;;;;32.23;12.07;;;6.30;99.90;;;;;;5049035;28;20441;-68
2022/01/16 12:53:50;;;;;;;19.43;12.80;;;6.30;99.90;;;;;;5046404;28;20478;-68
2022/01/16 12:56:21;;;;;;;14.50;9.03;;;6.30;99.90;;;;;;5059093;28;20786;-68
2022/01/16 12:58:49;;;;;;;21.23;11.00;;;6.30;99.90;;;;;;5052825;28;20448;-68
2022/01/16 13:01:16;;;;;;;29.50;13.77;;;6.30;99.90;;;;;;5025411;28;21527;-67
2022/01/16 13:03:45;;;;;;;24.13;10.27;;;6.40;99.90;;;;;;5042253;28;20471;-67
2022/01/16 13:06:26;;;;;;;19.20;9.87;;;6.40;99.90;;;;;;5035080;28;20437;-67
2022/01/16 13:09:01;;;;;;;20.30;10.90;;;6.30;99.90;;;;;;5052387;28;20447;-67
2022/01/16 13:11:31;;;;;;;22.23;10.20;;;6.30;99.90;;;;;;5036593;28;20476;-68
2022/01/16 13:13:58;;;;;;;15.73;7.50;;;6.30;99.90;;;;;;5056879;28;20457;-68
2022/01/16 13:16:27;;;;;;;17.60;9.97;;;6.40;99.90;;;;;;5051938;28;21499;-68
2022/01/16 13:19:07;;;;;;;14.57;8.67;;;6.40;99.90;;;;;;5052099;28;20872;-70
2022/01/16 13:21:43;;;;;;;14.77;8.80;;;6.30;99.90;;;;;;5050392;28;20471;-67
2022/01/16 13:24:33;;;;;;;32.87;14.13;;;6.30;99.90;;;;;;5052437;28;20497;-67
2022/01/16 13:27:02;;;;;;;13.63;7.10;;;6.20;99.90;;;;;;5049214;28;20469;-68
2022/01/16 13:29:30;;;;;;;17.43;8.20;;;6.30;99.90;;;;;;5044292;28;20424;-68
2022/01/16 13:31:57;;;;;;;20.60;9.33;;;6.20;99.90;;;;;;5053928;28;20462;-67
2022/01/16 13:34:40;;;;;;;24.00;12.87;;;6.30;99.90;;;;;;5051775;28;20445;-68
2022/01/16 13:37:09;;;;;;;11.33;8.50;;;6.30;99.90;;;;;;5055020;28;20485;-67
2022/01/16 13:39:40;;;;;;;28.43;10.00;;;6.20;99.90;;;;;;5034736;28;21247;-68
2022/01/16 13:42:51;;;;;;;15.33;7.50;;;6.30;99.90;;;;;;5048182;28;20945;-67